sensor_id;sensor_type;location;lat;lon;timestamp;temperature;humidity
1592;DHT22;789;51.612;7.510;2024-02-28T00:02:02;3.50;1.00
1592;DHT22;789;51.612;7.510;2024-02-28T00:04:29;3.40;1.00
1592;DHT22;789;51.612;7.510;2024-02-28T00:06:56;3.40;1.00
1592;DHT22;789;51.612;7.510;2024-02-28T00:09:23;3.40;1.00
1592;DHT22;789;51.612;7.510;2024-02-28T00:11:49;3.40;1.00
1592;DHT22;789;51.612;7.510;2024-02-28T00:14:16;3.40;1.00
1592;DHT22;789;51.612;7.510;2024-02-28T00:16:45;3.30;1.00
1592;DHT22;789;51.612;7.510;2024-02-28T00:19:12;3.30;1.00
1592;DHT22;789;51.612;7.510;2024-02-28T00:21:40;3.20;1.00
1592;DHT22;789;51.612;7.510;2024-02-28T00:24:07;3.20;1.00
1592;DHT22;789;51.612;7.510;2024-02-28T00:26:34;3.20;1.00
1592;DHT22;789;51.612;7.510;2024-02-28T00:29:01;3.20;1.00
1592;DHT22;789;51.612;7.510;2024-02-28T00:31:28;3.10;1.00
1592;DHT22;789;51.612;7.510;2024-02-28T00:33:56;3.10;1.00
1592;DHT22;789;51.612;7.510;2024-02-28T00:36:23;3.00;1.00
1592;DHT22;789;51.612;7.510;2024-02-28T00:38:49;3.00;1.00
1592;DHT22;789;51.612;7.510;2024-02-28T00:41:16;3.00;1.00
1592;DHT22;789;51.612;7.510;2024-02-28T00:43:43;3.10;1.00
1592;DHT22;789;51.612;7.510;2024-02-28T00:46:09;3.10;1.00
1592;DHT22;789;51.612;7.510;2024-02-28T00:48:37;3.10;1.00
1592;DHT22;789;51.612;7.510;2024-02-28T00:51:06;3.70;1.00
1592;DHT22;789;51.612;7.510;2024-02-28T00:53:33;3.10;1.00
1592;DHT22;789;51.612;7.510;2024-02-28T00:56:00;3.10;1.00
1592;DHT22;789;51.612;7.510;2024-02-28T00:58:27;3.00;1.00
1592;DHT22;789;51.612;7.510;2024-02-28T01:00:55;3.20;1.00
1592;DHT22;789;51.612;7.510;2024-02-28T01:03:22;3.20;1.00
1592;DHT22;789;51.612;7.510;2024-02-28T01:05:49;3.20;1.00
1592;DHT22;789;51.612;7.510;2024-02-28T01:08:17;3.20;1.00
1592;DHT22;789;51.612;7.510;2024-02-28T01:10:44;3.20;1.00
1592;DHT22;789;51.612;7.510;2024-02-28T01:13:11;3.20;1.00
1592;DHT22;789;51.612;7.510;2024-02-28T01:15:39;3.20;1.00
1592;DHT22;789;51.612;7.510;2024-02-28T01:18:06;3.20;1.00
1592;DHT22;789;51.612;7.510;2024-02-28T01:20:32;3.20;1.00
1592;DHT22;789;51.612;7.510;2024-02-28T01:22:59;3.20;1.00
1592;DHT22;789;51.612;7.510;2024-02-28T01:25:27;3.20;1.00
1592;DHT22;789;51.612;7.510;2024-02-28T01:27:56;3.70;1.00
1592;DHT22;789;51.612;7.510;2024-02-28T01:30:23;3.30;1.00
1592;DHT22;789;51.612;7.510;2024-02-28T01:32:50;3.30;1.00
1592;DHT22;789;51.612;7.510;2024-02-28T01:35:17;3.30;1.00
1592;DHT22;789;51.612;7.510;2024-02-28T01:37:44;3.20;1.00
1592;DHT22;789;51.612;7.510;2024-02-28T01:40:12;3.20;1.00
1592;DHT22;789;51.612;7.510;2024-02-28T01:42:40;3.30;1.00
1592;DHT22;789;51.612;7.510;2024-02-28T01:45:07;3.30;1.00
1592;DHT22;789;51.612;7.510;2024-02-28T01:47:36;3.20;1.00
1592;DHT22;789;51.612;7.510;2024-02-28T01:50:05;3.20;1.00
1592;DHT22;789;51.612;7.510;2024-02-28T01:52:32;3.20;1.00
1592;DHT22;789;51.612;7.510;2024-02-28T01:54:59;3.20;1.00
1592;DHT22;789;51.612;7.510;2024-02-28T01:57:26;3.20;1.00
1592;DHT22;789;51.612;7.510;2024-02-28T01:59:55;3.20;1.00
1592;DHT22;789;51.612;7.510;2024-02-28T02:02:22;3.30;1.00
1592;DHT22;789;51.612;7.510;2024-02-28T02:04:49;3.00;1.00
1592;DHT22;789;51.612;7.510;2024-02-28T02:07:18;3.10;1.00
1592;DHT22;789;51.612;7.510;2024-02-28T02:09:45;3.00;1.00
1592;DHT22;789;51.612;7.510;2024-02-28T02:12:12;2.90;1.00
1592;DHT22;789;51.612;7.510;2024-02-28T02:14:39;2.90;1.00
1592;DHT22;789;51.612;7.510;2024-02-28T02:17:07;2.90;1.00
1592;DHT22;789;51.612;7.510;2024-02-28T02:19:34;2.90;1.00
1592;DHT22;789;51.612;7.510;2024-02-28T02:22:03;2.80;1.00
1592;DHT22;789;51.612;7.510;2024-02-28T02:24:33;2.80;1.00
1592;DHT22;789;51.612;7.510;2024-02-28T02:27:00;2.80;1.00
1592;DHT22;789;51.612;7.510;2024-02-28T02:29:27;2.80;1.00
1592;DHT22;789;51.612;7.510;2024-02-28T02:31:54;3.10;1.00
1592;DHT22;789;51.612;7.510;2024-02-28T02:34:21;2.80;1.00
1592;DHT22;789;51.612;7.510;2024-02-28T02:36:47;2.70;1.00
1592;DHT22;789;51.612;7.510;2024-02-28T02:39:14;2.70;1.00
1592;DHT22;789;51.612;7.510;2024-02-28T02:41:42;2.60;1.00
1592;DHT22;789;51.612;7.510;2024-02-28T02:44:09;2.60;1.00
1592;DHT22;789;51.612;7.510;2024-02-28T02:46:36;2.60;1.00
1592;DHT22;789;51.612;7.510;2024-02-28T02:49:02;2.60;1.00
1592;DHT22;789;51.612;7.510;2024-02-28T02:51:29;2.50;1.00
1592;DHT22;789;51.612;7.510;2024-02-28T02:53:56;2.50;1.00
1592;DHT22;789;51.612;7.510;2024-02-28T02:56:23;2.50;1.00
1592;DHT22;789;51.612;7.510;2024-02-28T02:58:51;2.50;1.00
1592;DHT22;789;51.612;7.510;2024-02-28T03:01:17;2.60;1.00
1592;DHT22;789;51.612;7.510;2024-02-28T03:03:45;2.60;1.00
1592;DHT22;789;51.612;7.510;2024-02-28T03:06:12;2.60;1.00
1592;DHT22;789;51.612;7.510;2024-02-28T03:08:38;2.60;1.00
1592;DHT22;789;51.612;7.510;2024-02-28T03:11:05;2.60;1.00
1592;DHT22;789;51.612;7.510;2024-02-28T03:13:34;2.70;1.00
1592;DHT22;789;51.612;7.510;2024-02-28T03:16:03;2.70;1.00
1592;DHT22;789;51.612;7.510;2024-02-28T03:18:30;2.70;1.00
1592;DHT22;789;51.612;7.510;2024-02-28T03:20:56;3.20;1.00
1592;DHT22;789;51.612;7.510;2024-02-28T03:23:23;2.70;1.00
1592;DHT22;789;51.612;7.510;2024-02-28T03:25:50;2.70;1.00
1592;DHT22;789;51.612;7.510;2024-02-28T03:28:16;2.60;1.00
1592;DHT22;789;51.612;7.510;2024-02-28T03:30:43;2.80;1.00
1592;DHT22;789;51.612;7.510;2024-02-28T03:33:12;2.80;1.00
1592;DHT22;789;51.612;7.510;2024-02-28T03:35:39;2.90;1.00
1592;DHT22;789;51.612;7.510;2024-02-28T03:38:06;2.80;1.00
1592;DHT22;789;51.612;7.510;2024-02-28T03:40:32;2.90;1.00
1592;DHT22;789;51.612;7.510;2024-02-28T03:42:59;2.90;1.00
1592;DHT22;789;51.612;7.510;2024-02-28T03:45:27;2.80;1.00
1592;DHT22;789;51.612;7.510;2024-02-28T03:47:54;2.90;1.00
1592;DHT22;789;51.612;7.510;2024-02-28T03:50:22;2.90;1.00
1592;DHT22;789;51.612;7.510;2024-02-28T03:52:49;2.90;1.00
1592;DHT22;789;51.612;7.510;2024-02-28T03:55:16;2.90;1.00
1592;DHT22;789;51.612;7.510;2024-02-28T03:57:46;3.00;1.00
1592;DHT22;789;51.612;7.510;2024-02-28T04:00:14;3.00;1.00
1592;DHT22;789;51.612;7.510;2024-02-28T04:02:41;3.10;1.00
1592;DHT22;789;51.612;7.510;2024-02-28T04:05:08;3.20;1.00
1592;DHT22;789;51.612;7.510;2024-02-28T04:07:36;3.20;1.00
1592;DHT22;789;51.612;7.510;2024-02-28T04:10:03;3.20;1.00
1592;DHT22;789;51.612;7.510;2024-02-28T04:12:30;3.20;1.00
1592;DHT22;789;51.612;7.510;2024-02-28T04:14:57;3.00;1.00
1592;DHT22;789;51.612;7.510;2024-02-28T04:17:24;3.10;1.00
1592;DHT22;789;51.612;7.510;2024-02-28T04:19:51;3.10;1.00
1592;DHT22;789;51.612;7.510;2024-02-28T04:22:18;3.10;1.00
1592;DHT22;789;51.612;7.510;2024-02-28T04:24:46;3.20;1.00
1592;DHT22;789;51.612;7.510;2024-02-28T04:27:12;3.30;1.00
1592;DHT22;789;51.612;7.510;2024-02-28T04:29:39;3.40;1.00
1592;DHT22;789;51.612;7.510;2024-02-28T04:32:06;3.40;1.00
1592;DHT22;789;51.612;7.510;2024-02-28T04:34:33;3.40;1.00
1592;DHT22;789;51.612;7.510;2024-02-28T04:36:59;3.40;1.00
1592;DHT22;789;51.612;7.510;2024-02-28T04:39:26;3.40;1.00
1592;DHT22;789;51.612;7.510;2024-02-28T04:41:54;3.50;1.00
1592;DHT22;789;51.612;7.510;2024-02-28T04:44:21;3.50;1.00
1592;DHT22;789;51.612;7.510;2024-02-28T04:46:48;3.60;1.00
1592;DHT22;789;51.612;7.510;2024-02-28T04:49:15;3.60;1.00
1592;DHT22;789;51.612;7.510;2024-02-28T04:51:41;3.60;1.00
1592;DHT22;789;51.612;7.510;2024-02-28T04:54:08;3.70;1.00
1592;DHT22;789;51.612;7.510;2024-02-28T04:56:39;4.30;1.00
1592;DHT22;789;51.612;7.510;2024-02-28T04:59:07;3.80;1.00
1592;DHT22;789;51.612;7.510;2024-02-28T05:01:34;3.70;1.00
1592;DHT22;789;51.612;7.510;2024-02-28T05:04:04;3.70;1.00
1592;DHT22;789;51.612;7.510;2024-02-28T05:06:31;3.60;1.00
1592;DHT22;789;51.612;7.510;2024-02-28T05:08:58;3.60;1.00
1592;DHT22;789;51.612;7.510;2024-02-28T05:11:25;3.60;1.00
1592;DHT22;789;51.612;7.510;2024-02-28T05:13:52;3.70;1.00
1592;DHT22;789;51.612;7.510;2024-02-28T05:16:20;3.70;1.00
1592;DHT22;789;51.612;7.510;2024-02-28T05:18:47;3.80;1.00
1592;DHT22;789;51.612;7.510;2024-02-28T05:21:14;3.90;1.00
1592;DHT22;789;51.612;7.510;2024-02-28T05:23:41;3.80;1.00
1592;DHT22;789;51.612;7.510;2024-02-28T05:26:07;3.60;1.00
1592;DHT22;789;51.612;7.510;2024-02-28T05:28:34;3.50;1.00
1592;DHT22;789;51.612;7.510;2024-02-28T05:31:02;3.30;1.00
1592;DHT22;789;51.612;7.510;2024-02-28T05:33:34;3.20;1.00
1592;DHT22;789;51.612;7.510;2024-02-28T05:36:01;3.10;1.00
1592;DHT22;789;51.612;7.510;2024-02-28T05:38:30;3.10;1.00
1592;DHT22;789;51.612;7.510;2024-02-28T05:40:57;3.10;1.00
1592;DHT22;789;51.612;7.510;2024-02-28T05:43:24;3.10;1.00
1592;DHT22;789;51.612;7.510;2024-02-28T05:45:52;3.20;1.00
1592;DHT22;789;51.612;7.510;2024-02-28T05:48:18;3.80;1.00
1592;DHT22;789;51.612;7.510;2024-02-28T05:50:47;3.10;1.00
1592;DHT22;789;51.612;7.510;2024-02-28T05:53:13;3.00;1.00
1592;DHT22;789;51.612;7.510;2024-02-28T05:55:40;3.00;1.00
1592;DHT22;789;51.612;7.510;2024-02-28T05:58:07;3.10;1.00
1592;DHT22;789;51.612;7.510;2024-02-28T06:00:34;3.10;1.00
1592;DHT22;789;51.612;7.510;2024-02-28T06:03:01;3.20;1.00
1592;DHT22;789;51.612;7.510;2024-02-28T06:05:28;3.20;1.00
1592;DHT22;789;51.612;7.510;2024-02-28T06:07:56;3.30;1.00
1592;DHT22;789;51.612;7.510;2024-02-28T06:10:23;3.30;1.00
1592;DHT22;789;51.612;7.510;2024-02-28T06:12:50;3.50;1.00
1592;DHT22;789;51.612;7.510;2024-02-28T06:15:16;3.60;1.00
1592;DHT22;789;51.612;7.510;2024-02-28T06:17:44;3.70;1.00
1592;DHT22;789;51.612;7.510;2024-02-28T06:20:11;3.80;1.00
1592;DHT22;789;51.612;7.510;2024-02-28T06:22:37;3.70;1.00
1592;DHT22;789;51.612;7.510;2024-02-28T06:25:07;3.80;1.00
1592;DHT22;789;51.612;7.510;2024-02-28T06:27:43;3.80;1.00
1592;DHT22;789;51.612;7.510;2024-02-28T06:30:10;3.80;1.00
1592;DHT22;789;51.612;7.510;2024-02-28T06:32:38;3.90;1.00
1592;DHT22;789;51.612;7.510;2024-02-28T06:35:05;4.10;1.00
1592;DHT22;789;51.612;7.510;2024-02-28T06:37:35;4.10;1.00
1592;DHT22;789;51.612;7.510;2024-02-28T06:40:02;4.20;1.00
1592;DHT22;789;51.612;7.510;2024-02-28T06:42:31;4.30;1.00
1592;DHT22;789;51.612;7.510;2024-02-28T06:44:57;4.20;1.00
1592;DHT22;789;51.612;7.510;2024-02-28T06:47:24;4.30;1.00
1592;DHT22;789;51.612;7.510;2024-02-28T06:49:51;4.40;1.00
1592;DHT22;789;51.612;7.510;2024-02-28T06:52:18;4.40;1.00
1592;DHT22;789;51.612;7.510;2024-02-28T06:54:45;4.60;1.00
1592;DHT22;789;51.612;7.510;2024-02-28T06:57:12;4.50;1.00
1592;DHT22;789;51.612;7.510;2024-02-28T06:59:40;4.60;1.00
1592;DHT22;789;51.612;7.510;2024-02-28T07:02:07;4.60;1.00
1592;DHT22;789;51.612;7.510;2024-02-28T07:04:33;4.50;1.00
1592;DHT22;789;51.612;7.510;2024-02-28T07:07:00;4.50;1.00
1592;DHT22;789;51.612;7.510;2024-02-28T07:09:27;4.50;1.00
1592;DHT22;789;51.612;7.510;2024-02-28T07:11:56;4.60;1.00
1592;DHT22;789;51.612;7.510;2024-02-28T07:14:23;4.40;1.00
1592;DHT22;789;51.612;7.510;2024-02-28T07:16:51;4.40;1.00
1592;DHT22;789;51.612;7.510;2024-02-28T07:19:18;4.40;1.00
1592;DHT22;789;51.612;7.510;2024-02-28T07:21:45;4.50;1.00
1592;DHT22;789;51.612;7.510;2024-02-28T07:24:12;5.10;1.00
1592;DHT22;789;51.612;7.510;2024-02-28T07:26:39;5.00;1.00
1592;DHT22;789;51.612;7.510;2024-02-28T07:29:07;5.20;1.00
1592;DHT22;789;51.612;7.510;2024-02-28T07:31:33;4.60;1.00
1592;DHT22;789;51.612;7.510;2024-02-28T07:34:01;4.70;1.00
1592;DHT22;789;51.612;7.510;2024-02-28T07:36:29;4.70;1.00
1592;DHT22;789;51.612;7.510;2024-02-28T07:38:55;4.60;1.00
1592;DHT22;789;51.612;7.510;2024-02-28T07:41:22;4.60;1.00
1592;DHT22;789;51.612;7.510;2024-02-28T07:43:49;4.50;1.00
1592;DHT22;789;51.612;7.510;2024-02-28T07:46:16;4.40;1.00
1592;DHT22;789;51.612;7.510;2024-02-28T07:48:43;4.50;1.00
1592;DHT22;789;51.612;7.510;2024-02-28T07:51:11;4.50;1.00
1592;DHT22;789;51.612;7.510;2024-02-28T07:53:38;4.50;1.00
1592;DHT22;789;51.612;7.510;2024-02-28T07:56:05;4.60;1.00
1592;DHT22;789;51.612;7.510;2024-02-28T07:58:32;4.60;1.00
1592;DHT22;789;51.612;7.510;2024-02-28T08:00:59;4.70;1.00
1592;DHT22;789;51.612;7.510;2024-02-28T08:03:25;4.90;1.00
1592;DHT22;789;51.612;7.510;2024-02-28T08:05:52;5.00;1.00
1592;DHT22;789;51.612;7.510;2024-02-28T08:08:20;5.20;1.00
1592;DHT22;789;51.612;7.510;2024-02-28T08:10:47;5.30;1.00
1592;DHT22;789;51.612;7.510;2024-02-28T08:13:14;5.80;1.00
1592;DHT22;789;51.612;7.510;2024-02-28T08:15:41;5.40;1.00
1592;DHT22;789;51.612;7.510;2024-02-28T08:18:08;5.50;1.00
1592;DHT22;789;51.612;7.510;2024-02-28T08:20:36;5.60;1.00
1592;DHT22;789;51.612;7.510;2024-02-28T08:23:03;5.50;1.00
1592;DHT22;789;51.612;7.510;2024-02-28T08:25:32;5.50;1.00
1592;DHT22;789;51.612;7.510;2024-02-28T08:27:59;5.60;1.00
1592;DHT22;789;51.612;7.510;2024-02-28T08:30:26;5.70;1.00
1592;DHT22;789;51.612;7.510;2024-02-28T08:32:52;6.10;1.00
1592;DHT22;789;51.612;7.510;2024-02-28T08:35:19;5.90;1.00
1592;DHT22;789;51.612;7.510;2024-02-28T08:37:46;6.00;1.00
1592;DHT22;789;51.612;7.510;2024-02-28T08:40:13;6.00;1.00
1592;DHT22;789;51.612;7.510;2024-02-28T08:42:41;6.00;1.00
1592;DHT22;789;51.612;7.510;2024-02-28T08:45:10;6.20;1.00
1592;DHT22;789;51.612;7.510;2024-02-28T08:47:36;6.00;1.00
1592;DHT22;789;51.612;7.510;2024-02-28T08:50:04;6.00;1.00
1592;DHT22;789;51.612;7.510;2024-02-28T08:52:31;6.10;1.00
1592;DHT22;789;51.612;7.510;2024-02-28T08:54:58;6.20;1.00
1592;DHT22;789;51.612;7.510;2024-02-28T08:57:25;6.30;1.00
1592;DHT22;789;51.612;7.510;2024-02-28T08:59:53;6.50;1.00
1592;DHT22;789;51.612;7.510;2024-02-28T09:02:20;6.40;1.00
1592;DHT22;789;51.612;7.510;2024-02-28T09:04:46;6.40;1.00
1592;DHT22;789;51.612;7.510;2024-02-28T09:07:17;6.50;1.00
1592;DHT22;789;51.612;7.510;2024-02-28T09:09:45;6.50;1.00
1592;DHT22;789;51.612;7.510;2024-02-28T09:12:12;6.60;1.00
1592;DHT22;789;51.612;7.510;2024-02-28T09:14:39;6.70;1.00
1592;DHT22;789;51.612;7.510;2024-02-28T09:17:07;6.80;1.00
1592;DHT22;789;51.612;7.510;2024-02-28T09:19:34;6.80;1.00
1592;DHT22;789;51.612;7.510;2024-02-28T09:22:00;6.90;1.00
1592;DHT22;789;51.612;7.510;2024-02-28T09:24:27;7.00;1.00
1592;DHT22;789;51.612;7.510;2024-02-28T09:26:54;7.10;1.00
1592;DHT22;789;51.612;7.510;2024-02-28T09:29:21;7.20;1.00
1592;DHT22;789;51.612;7.510;2024-02-28T09:31:47;7.20;1.00
1592;DHT22;789;51.612;7.510;2024-02-28T09:34:15;7.20;1.00
1592;DHT22;789;51.612;7.510;2024-02-28T09:36:42;7.40;1.00
1592;DHT22;789;51.612;7.510;2024-02-28T09:39:11;7.50;1.00
1592;DHT22;789;51.612;7.510;2024-02-28T09:41:38;7.50;1.00
1592;DHT22;789;51.612;7.510;2024-02-28T09:44:06;8.10;1.00
1592;DHT22;789;51.612;7.510;2024-02-28T09:46:34;7.60;1.00
1592;DHT22;789;51.612;7.510;2024-02-28T09:49:03;7.70;1.00
1592;DHT22;789;51.612;7.510;2024-02-28T09:51:33;7.80;1.00
1592;DHT22;789;51.612;7.510;2024-02-28T09:54:00;7.80;1.00
1592;DHT22;789;51.612;7.510;2024-02-28T09:56:28;8.00;1.00
1592;DHT22;789;51.612;7.510;2024-02-28T09:58:55;8.10;1.00
1592;DHT22;789;51.612;7.510;2024-02-28T10:01:22;8.10;1.00
1592;DHT22;789;51.612;7.510;2024-02-28T10:03:51;8.10;1.00
1592;DHT22;789;51.612;7.510;2024-02-28T10:06:18;8.10;1.00
1592;DHT22;789;51.612;7.510;2024-02-28T10:08:46;8.10;1.00
1592;DHT22;789;51.612;7.510;2024-02-28T10:11:17;8.70;1.00
1592;DHT22;789;51.612;7.510;2024-02-28T10:13:45;8.30;1.00
1592;DHT22;789;51.612;7.510;2024-02-28T10:16:12;8.40;1.00
1592;DHT22;789;51.612;7.510;2024-02-28T10:18:40;8.60;1.00
1592;DHT22;789;51.612;7.510;2024-02-28T10:21:07;8.90;1.00
1592;DHT22;789;51.612;7.510;2024-02-28T10:23:34;9.40;1.00
1592;DHT22;789;51.612;7.510;2024-02-28T10:26:02;10.20;1.00
1592;DHT22;789;51.612;7.510;2024-02-28T10:28:29;11.50;1.00
1592;DHT22;789;51.612;7.510;2024-02-28T10:30:56;12.20;1.00
1592;DHT22;789;51.612;7.510;2024-02-28T10:33:27;13.70;1.00
1592;DHT22;789;51.612;7.510;2024-02-28T10:35:56;14.90;1.00
1592;DHT22;789;51.612;7.510;2024-02-28T10:38:23;15.70;1.00
1592;DHT22;789;51.612;7.510;2024-02-28T10:40:53;17.30;1.00
1592;DHT22;789;51.612;7.510;2024-02-28T10:43:21;17.40;1.00
1592;DHT22;789;51.612;7.510;2024-02-28T10:45:48;18.10;1.00
1592;DHT22;789;51.612;7.510;2024-02-28T10:48:16;18.80;1.00
1592;DHT22;789;51.612;7.510;2024-02-28T10:50:44;19.10;1.00
1592;DHT22;789;51.612;7.510;2024-02-28T10:53:14;20.00;1.00
1592;DHT22;789;51.612;7.510;2024-02-28T10:55:41;20.40;1.00
1592;DHT22;789;51.612;7.510;2024-02-28T10:58:11;21.00;1.00
1592;DHT22;789;51.612;7.510;2024-02-28T11:00:41;21.80;1.00
1592;DHT22;789;51.612;7.510;2024-02-28T11:03:10;22.00;1.00
1592;DHT22;789;51.612;7.510;2024-02-28T11:05:37;22.50;1.00
1592;DHT22;789;51.612;7.510;2024-02-28T11:08:08;22.00;1.00
1592;DHT22;789;51.612;7.510;2024-02-28T11:10:36;22.20;1.00
1592;DHT22;789;51.612;7.510;2024-02-28T11:13:07;22.10;1.00
1592;DHT22;789;51.612;7.510;2024-02-28T11:15:34;21.60;1.00
1592;DHT22;789;51.612;7.510;2024-02-28T11:18:08;21.60;1.00
1592;DHT22;789;51.612;7.510;2024-02-28T11:20:36;21.60;1.00
1592;DHT22;789;51.612;7.510;2024-02-28T11:23:03;20.00;1.00
1592;DHT22;789;51.612;7.510;2024-02-28T11:25:32;19.70;1.00
1592;DHT22;789;51.612;7.510;2024-02-28T11:27:59;19.80;1.00
1592;DHT22;789;51.612;7.510;2024-02-28T11:30:25;18.80;1.00
1592;DHT22;789;51.612;7.510;2024-02-28T11:32:52;17.40;1.00
1592;DHT22;789;51.612;7.510;2024-02-28T11:35:22;17.20;1.00
1592;DHT22;789;51.612;7.510;2024-02-28T11:37:49;17.10;1.00
1592;DHT22;789;51.612;7.510;2024-02-28T11:40:19;16.30;1.00
1592;DHT22;789;51.612;7.510;2024-02-28T11:42:45;15.90;1.00
1592;DHT22;789;51.612;7.510;2024-02-28T11:45:12;15.10;1.00
1592;DHT22;789;51.612;7.510;2024-02-28T11:47:40;14.90;1.00
1592;DHT22;789;51.612;7.510;2024-02-28T11:50:07;14.60;1.00
1592;DHT22;789;51.612;7.510;2024-02-28T11:52:35;14.80;1.00
1592;DHT22;789;51.612;7.510;2024-02-28T11:55:03;14.90;1.00
1592;DHT22;789;51.612;7.510;2024-02-28T11:57:30;15.00;1.00
1592;DHT22;789;51.612;7.510;2024-02-28T12:00:02;15.10;1.00
1592;DHT22;789;51.612;7.510;2024-02-28T12:02:30;16.10;1.00
1592;DHT22;789;51.612;7.510;2024-02-28T12:05:00;17.20;1.00
1592;DHT22;789;51.612;7.510;2024-02-28T12:07:27;18.30;1.00
1592;DHT22;789;51.612;7.510;2024-02-28T12:09:57;19.40;1.00
1592;DHT22;789;51.612;7.510;2024-02-28T12:12:24;20.00;1.00
1592;DHT22;789;51.612;7.510;2024-02-28T12:14:50;20.70;1.00
1592;DHT22;789;51.612;7.510;2024-02-28T12:17:17;21.50;1.00
1592;DHT22;789;51.612;7.510;2024-02-28T12:19:44;22.20;1.00
1592;DHT22;789;51.612;7.510;2024-02-28T12:22:11;22.60;1.00
1592;DHT22;789;51.612;7.510;2024-02-28T12:24:37;22.60;1.00
1592;DHT22;789;51.612;7.510;2024-02-28T12:27:06;22.30;1.00
1592;DHT22;789;51.612;7.510;2024-02-28T12:29:32;22.20;1.00
1592;DHT22;789;51.612;7.510;2024-02-28T12:31:59;21.60;1.00
1592;DHT22;789;51.612;7.510;2024-02-28T12:34:26;20.30;1.00
1592;DHT22;789;51.612;7.510;2024-02-28T12:36:53;20.70;1.00
1592;DHT22;789;51.612;7.510;2024-02-28T12:39:20;20.20;1.00
1592;DHT22;789;51.612;7.510;2024-02-28T12:41:47;19.90;1.00
1592;DHT22;789;51.612;7.510;2024-02-28T12:44:17;19.50;1.00
1592;DHT22;789;51.612;7.510;2024-02-28T12:46:43;19.40;1.00
1592;DHT22;789;51.612;7.510;2024-02-28T12:49:10;18.80;1.00
1592;DHT22;789;51.612;7.510;2024-02-28T12:51:38;18.40;1.00
1592;DHT22;789;51.612;7.510;2024-02-28T12:54:06;17.90;1.00
1592;DHT22;789;51.612;7.510;2024-02-28T12:56:33;18.00;1.00
1592;DHT22;789;51.612;7.510;2024-02-28T12:59:00;16.80;1.00
1592;DHT22;789;51.612;7.510;2024-02-28T13:01:28;16.00;1.00
1592;DHT22;789;51.612;7.510;2024-02-28T13:03:55;15.50;1.00
1592;DHT22;789;51.612;7.510;2024-02-28T13:06:22;15.10;1.00
1592;DHT22;789;51.612;7.510;2024-02-28T13:08:49;15.50;1.00
1592;DHT22;789;51.612;7.510;2024-02-28T13:11:18;15.10;1.00
1592;DHT22;789;51.612;7.510;2024-02-28T13:13:46;14.60;1.00
1592;DHT22;789;51.612;7.510;2024-02-28T13:16:12;14.70;1.00
1592;DHT22;789;51.612;7.510;2024-02-28T13:18:40;14.60;1.00
1592;DHT22;789;51.612;7.510;2024-02-28T13:21:07;14.60;1.00
1592;DHT22;789;51.612;7.510;2024-02-28T13:23:34;14.50;1.00
1592;DHT22;789;51.612;7.510;2024-02-28T13:26:03;15.10;1.00
1592;DHT22;789;51.612;7.510;2024-02-28T13:28:29;14.50;1.00
1592;DHT22;789;51.612;7.510;2024-02-28T13:30:57;14.40;1.00
1592;DHT22;789;51.612;7.510;2024-02-28T13:33:23;14.20;1.00
1592;DHT22;789;51.612;7.510;2024-02-28T13:35:52;14.10;1.00
1592;DHT22;789;51.612;7.510;2024-02-28T13:38:19;14.30;1.00
1592;DHT22;789;51.612;7.510;2024-02-28T13:40:46;13.90;1.00
1592;DHT22;789;51.612;7.510;2024-02-28T13:43:13;13.70;1.00
1592;DHT22;789;51.612;7.510;2024-02-28T13:45:40;13.60;1.00
1592;DHT22;789;51.612;7.510;2024-02-28T13:48:15;13.60;1.00
1592;DHT22;789;51.612;7.510;2024-02-28T13:50:43;13.60;1.00
1592;DHT22;789;51.612;7.510;2024-02-28T13:53:11;13.60;1.00
1592;DHT22;789;51.612;7.510;2024-02-28T13:55:38;13.40;1.00
1592;DHT22;789;51.612;7.510;2024-02-28T13:58:05;13.40;1.00
1592;DHT22;789;51.612;7.510;2024-02-28T14:00:33;13.60;1.00
1592;DHT22;789;51.612;7.510;2024-02-28T14:03:00;13.40;1.00
1592;DHT22;789;51.612;7.510;2024-02-28T14:05:27;13.80;1.00
1592;DHT22;789;51.612;7.510;2024-02-28T14:07:54;13.30;1.00
1592;DHT22;789;51.612;7.510;2024-02-28T14:10:22;13.20;1.00
1592;DHT22;789;51.612;7.510;2024-02-28T14:12:49;13.30;1.00
1592;DHT22;789;51.612;7.510;2024-02-28T14:15:18;13.00;1.00
1592;DHT22;789;51.612;7.510;2024-02-28T14:17:45;13.00;1.00
1592;DHT22;789;51.612;7.510;2024-02-28T14:20:12;13.00;1.00
1592;DHT22;789;51.612;7.510;2024-02-28T14:22:40;13.00;1.00
1592;DHT22;789;51.612;7.510;2024-02-28T14:25:11;12.90;1.00
1592;DHT22;789;51.612;7.510;2024-02-28T14:27:41;12.90;1.00
1592;DHT22;789;51.612;7.510;2024-02-28T14:30:11;12.90;1.00
1592;DHT22;789;51.612;7.510;2024-02-28T14:32:38;12.90;1.00
1592;DHT22;789;51.612;7.510;2024-02-28T14:35:06;12.90;1.00
1592;DHT22;789;51.612;7.510;2024-02-28T14:37:34;12.90;1.00
1592;DHT22;789;51.612;7.510;2024-02-28T14:40:01;13.30;1.00
1592;DHT22;789;51.612;7.510;2024-02-28T14:42:29;12.80;1.00
1592;DHT22;789;51.612;7.510;2024-02-28T14:44:58;12.70;1.00
1592;DHT22;789;51.612;7.510;2024-02-28T14:47:25;13.20;1.00
1592;DHT22;789;51.612;7.510;2024-02-28T14:49:51;12.50;1.00
1592;DHT22;789;51.612;7.510;2024-02-28T14:52:18;12.50;1.00
1592;DHT22;789;51.612;7.510;2024-02-28T14:54:45;12.50;1.00
1592;DHT22;789;51.612;7.510;2024-02-28T14:57:11;12.50;1.00
1592;DHT22;789;51.612;7.510;2024-02-28T14:59:39;13.00;1.00
1592;DHT22;789;51.612;7.510;2024-02-28T15:02:08;12.50;1.00
1592;DHT22;789;51.612;7.510;2024-02-28T15:04:37;12.50;1.00
1592;DHT22;789;51.612;7.510;2024-02-28T15:07:06;12.50;1.00
1592;DHT22;789;51.612;7.510;2024-02-28T15:09:33;12.40;1.00
1592;DHT22;789;51.612;7.510;2024-02-28T15:12:00;12.30;1.00
1592;DHT22;789;51.612;7.510;2024-02-28T15:14:30;12.80;1.00
1592;DHT22;789;51.612;7.510;2024-02-28T15:16:56;12.10;1.00
1592;DHT22;789;51.612;7.510;2024-02-28T15:19:24;12.10;1.00
1592;DHT22;789;51.612;7.510;2024-02-28T15:21:52;12.10;1.00
1592;DHT22;789;51.612;7.510;2024-02-28T15:24:19;12.20;1.00
1592;DHT22;789;51.612;7.510;2024-02-28T15:26:47;12.20;1.00
1592;DHT22;789;51.612;7.510;2024-02-28T15:29:14;12.30;1.00
1592;DHT22;789;51.612;7.510;2024-02-28T15:31:41;12.30;1.00
1592;DHT22;789;51.612;7.510;2024-02-28T15:34:08;12.20;1.00
1592;DHT22;789;51.612;7.510;2024-02-28T15:36:36;12.10;1.00
1592;DHT22;789;51.612;7.510;2024-02-28T15:39:03;12.10;1.00
1592;DHT22;789;51.612;7.510;2024-02-28T15:41:30;12.60;1.00
1592;DHT22;789;51.612;7.510;2024-02-28T15:43:57;12.10;1.00
1592;DHT22;789;51.612;7.510;2024-02-28T15:46:24;12.20;1.00
1592;DHT22;789;51.612;7.510;2024-02-28T15:48:50;12.10;1.00
1592;DHT22;789;51.612;7.510;2024-02-28T15:51:17;12.10;1.00
1592;DHT22;789;51.612;7.510;2024-02-28T15:53:46;12.00;1.00
1592;DHT22;789;51.612;7.510;2024-02-28T15:56:14;12.60;1.00
1592;DHT22;789;51.612;7.510;2024-02-28T15:58:41;11.90;1.00
1592;DHT22;789;51.612;7.510;2024-02-28T16:01:09;11.90;1.00
1592;DHT22;789;51.612;7.510;2024-02-28T16:03:36;11.90;1.00
1592;DHT22;789;51.612;7.510;2024-02-28T16:06:04;12.40;1.00
1592;DHT22;789;51.612;7.510;2024-02-28T16:08:32;11.80;1.00
1592;DHT22;789;51.612;7.510;2024-02-28T16:11:00;11.70;1.00
1592;DHT22;789;51.612;7.510;2024-02-28T16:13:28;11.50;1.00
1592;DHT22;789;51.612;7.510;2024-02-28T16:15:55;11.60;1.00
1592;DHT22;789;51.612;7.510;2024-02-28T16:18:21;11.60;1.00
1592;DHT22;789;51.612;7.510;2024-02-28T16:20:48;11.50;1.00
1592;DHT22;789;51.612;7.510;2024-02-28T16:23:15;11.90;1.00
1592;DHT22;789;51.612;7.510;2024-02-28T16:25:42;11.40;1.00
1592;DHT22;789;51.612;7.510;2024-02-28T16:28:10;11.40;1.00
1592;DHT22;789;51.612;7.510;2024-02-28T16:30:38;11.40;1.00
1592;DHT22;789;51.612;7.510;2024-02-28T16:33:14;11.50;1.00
1592;DHT22;789;51.612;7.510;2024-02-28T16:35:42;11.40;1.00
1592;DHT22;789;51.612;7.510;2024-02-28T16:38:09;11.40;1.00
1592;DHT22;789;51.612;7.510;2024-02-28T16:40:36;11.40;1.00
1592;DHT22;789;51.612;7.510;2024-02-28T16:43:02;11.40;1.00
1592;DHT22;789;51.612;7.510;2024-02-28T16:45:31;11.40;1.00